Time;durP1;ratioP1;P1;durP2;ratioP2;P2;SDS_P1;SDS_P2;PMS_P1;PMS_P2;Temp;Humidity;BMP_temperature;BMP_pressure;BME280_temperature;BME280_humidity;BME280_pressure;Samples;Min_cycle;Max_cycle;Signal;HPM_P1;HPM_P2
2023/07/02 00:01:34;;;;;;;4.50;2.80;;;22.00;64.30;22.60;99978.00;;;;5008760;28;20191;-46
2023/07/02 00:04:00;;;;;;;4.13;2.60;;;22.00;64.30;22.40;99974.00;;;;5008222;28;20179;-46
2023/07/02 00:06:25;;;;;;;3.87;2.90;;;22.00;64.30;22.60;99988.00;;;;5008229;28;20199;-46
2023/07/02 00:08:51;;;;;;;3.00;2.67;;;22.00;64.30;22.60;99979.00;;;;5009666;28;20799;-46
2023/07/02 00:11:17;;;;;;;3.60;2.80;;;22.00;64.40;22.60;99980.00;;;;5029840;28;20184;-46
2023/07/02 00:13:42;;;;;;;3.57;2.90;;;21.90;64.30;22.60;99980.00;;;;5010877;28;20211;-47
2023/07/02 00:16:08;;;;;;;4.17;2.70;;;21.90;64.30;22.50;99982.00;;;;5008827;28;20266;-46
2023/07/02 00:18:34;;;;;;;3.53;2.93;;;21.90;64.30;22.50;99969.00;;;;5009364;28;20638;-47
2023/07/02 00:21:03;;;;;;;6.60;3.03;;;21.90;64.20;22.50;99971.00;;;;5009673;28;20171;-46
2023/07/02 00:23:29;;;;;;;3.50;3.07;;;21.90;64.20;22.50;99970.00;;;;5010371;28;20190;-46
2023/07/02 00:25:56;;;;;;;4.70;2.97;;;21.90;64.10;22.50;99967.00;;;;5027022;28;20199;-46
2023/07/02 00:28:22;;;;;;;4.70;3.27;;;21.90;64.10;22.50;99970.00;;;;5008952;28;20194;-45
2023/07/02 00:30:48;;;;;;;3.67;3.07;;;21.90;64.00;22.50;99979.00;;;;5008499;28;20172;-47
2023/07/02 00:33:14;;;;;;;4.47;3.00;;;21.90;63.80;22.50;99972.00;;;;5007963;28;20834;-46
2023/07/02 00:35:39;;;;;;;6.67;3.67;;;21.80;63.60;22.50;99976.00;;;;5007688;28;20200;-46
2023/07/02 00:38:05;;;;;;;4.57;3.23;;;21.80;63.60;22.40;99970.00;;;;5010598;28;20714;-47
2023/07/02 00:40:31;;;;;;;4.37;3.30;;;21.80;63.40;22.40;99967.00;;;;5011366;28;20175;-46
2023/07/02 00:42:56;;;;;;;6.97;3.50;;;21.80;63.20;22.40;99981.00;;;;5010686;28;20769;-46
2023/07/02 00:45:26;;;;;;;3.93;3.30;;;21.80;64.00;22.40;99967.00;;;;5011073;28;20250;-46
2023/07/02 00:47:53;;;;;;;6.07;3.70;;;21.80;63.20;22.40;99980.00;;;;5011200;28;20237;-46
2023/07/02 00:50:19;;;;;;;5.33;3.60;;;21.80;63.00;22.40;99974.00;;;;5010470;28;20176;-47
2023/07/02 00:52:45;;;;;;;6.90;3.70;;;21.80;62.70;22.40;99976.00;;;;5009695;28;20337;-46
2023/07/02 00:55:11;;;;;;;6.80;4.20;;;21.80;62.50;22.30;99959.00;;;;5009841;28;20183;-46
2023/07/02 00:57:36;;;;;;;5.73;3.97;;;21.70;62.20;22.30;99966.00;;;;5010127;28;20264;-46
2023/07/02 01:00:03;;;;;;;5.57;4.60;;;21.70;62.20;22.30;99971.00;;;;5011316;28;20576;-46
2023/07/02 01:02:29;;;;;;;6.40;4.63;;;21.70;61.90;22.30;99962.00;;;;5010904;28;20183;-46
2023/07/02 01:04:58;;;;;;;8.00;4.80;;;21.70;61.70;22.30;99901.00;;;;5009310;28;20190;-46
2023/07/02 01:07:23;;;;;;;5.43;4.70;;;21.70;61.60;22.30;99970.00;;;;5010942;28;20334;-47
2023/07/02 01:09:50;;;;;;;5.93;4.80;;;21.70;61.40;22.20;99968.00;;;;5010741;28;20699;-47
2023/07/02 01:12:17;;;;;;;5.60;4.97;;;21.70;61.20;22.20;99971.00;;;;5009194;28;20286;-46
2023/07/02 01:14:52;;;;;;;7.10;5.30;;;21.70;61.00;22.20;99958.00;;;;5008744;28;20207;-47
2023/07/02 01:17:19;;;;;;;6.37;5.20;;;21.60;60.80;22.20;99970.00;;;;5009834;28;20199;-47
2023/07/02 01:19:58;;;;;;;6.03;5.33;;;21.60;60.80;22.20;99972.00;;;;5009443;28;20176;-46
2023/07/02 01:22:27;;;;;;;7.20;5.50;;;21.60;60.60;22.20;99977.00;;;;5010242;28;20209;-47
2023/07/02 01:24:54;;;;;;;9.97;5.93;;;21.60;60.60;22.20;99970.00;;;;5010412;28;20208;-46
2023/07/02 01:27:20;;;;;;;7.57;5.70;;;21.60;60.50;22.10;99968.00;;;;5010863;28;20183;-46
2023/07/02 01:29:46;;;;;;;7.30;5.90;;;21.60;60.30;22.10;99968.00;;;;5010249;28;20250;-48
2023/07/02 01:32:13;;;;;;;9.73;6.40;;;21.50;60.20;22.10;99968.00;;;;5010411;28;20195;-46
2023/07/02 01:34:39;;;;;;;8.27;6.13;;;21.50;60.10;22.10;99966.00;;;;5012361;28;20172;-47
2023/07/02 01:37:04;;;;;;;8.20;6.30;;;21.50;60.10;22.10;99968.00;;;;5012138;28;20191;-46
2023/07/02 01:39:30;;;;;;;7.70;6.03;;;21.50;60.10;22.10;99962.00;;;;5010275;28;20199;-47
2023/07/02 01:42:06;;;;;;;8.30;6.63;;;21.50;60.10;22.10;99960.00;;;;5009998;28;20168;-46
2023/07/02 01:44:32;;;;;;;9.77;6.50;;;21.50;60.10;22.10;99955.00;;;;5009823;28;20176;-47
2023/07/02 01:46:58;;;;;;;8.90;6.73;;;21.40;60.00;22.00;99959.00;;;;5010524;28;20195;-47
2023/07/02 01:49:24;;;;;;;8.97;6.73;;;21.40;60.00;22.10;99967.00;;;;5010372;28;20259;-47
2023/07/02 01:51:53;;;;;;;8.03;6.80;;;21.50;60.80;22.00;99956.00;;;;5009632;28;20186;-47
2023/07/02 01:54:19;;;;;;;9.37;7.60;;;21.50;60.00;22.00;99959.00;;;;5009694;28;20196;-47
2023/07/02 01:56:45;;;;;;;9.27;7.27;;;21.40;60.00;22.00;99965.00;;;;5010178;28;20199;-47
2023/07/02 01:59:11;;;;;;;9.03;7.47;;;21.40;59.90;22.00;99974.00;;;;5010307;28;20187;-47
2023/07/02 02:01:40;;;;;;;9.30;7.40;;;21.40;59.90;22.00;99964.00;;;;5010341;28;20684;-47
2023/07/02 02:04:07;;;;;;;10.17;7.63;;;21.50;60.00;22.00;99972.00;;;;5008290;28;20190;-47
2023/07/02 02:06:33;;;;;;;8.90;7.40;;;21.40;59.90;22.00;99974.00;;;;5009829;28;20241;-47
2023/07/02 02:08:59;;;;;;;9.77;7.40;;;21.40;60.00;22.00;99968.00;;;;5009810;28;20597;-46
2023/07/02 02:11:25;;;;;;;11.07;8.23;;;21.40;60.00;22.00;99969.00;;;;5019484;28;20184;-46
2023/07/02 02:13:51;;;;;;;10.47;8.10;;;21.40;60.00;21.90;99963.00;;;;5001535;28;20700;-46
2023/07/02 02:16:17;;;;;;;9.37;8.10;;;21.40;60.00;21.90;99955.00;;;;5010059;28;20192;-46
2023/07/02 02:18:42;;;;;;;9.97;7.50;;;21.40;60.00;21.90;99959.00;;;;5009859;28;20199;-47
2023/07/02 02:21:08;;;;;;;11.70;8.00;;;21.40;60.00;21.90;99969.00;;;;5010273;28;20660;-46
2023/07/02 02:23:34;;;;;;;8.40;7.50;;;21.40;60.00;21.90;99972.00;;;;5009653;28;20191;-46
2023/07/02 02:26:00;;;;;;;10.53;7.40;;;21.40;60.00;21.90;99982.00;;;;5024434;28;20183;-46
2023/07/02 02:28:25;;;;;;;8.80;7.37;;;21.30;59.90;21.90;99985.00;;;;5017703;28;20195;-46
2023/07/02 02:30:51;;;;;;;9.33;7.77;;;21.40;60.00;21.90;99990.00;;;;5009519;28;20187;-46
2023/07/02 02:33:17;;;;;;;8.03;7.23;;;21.40;60.00;21.90;99983.00;;;;4991403;28;20630;-47
2023/07/02 02:35:42;;;;;;;9.33;7.53;;;21.40;60.00;21.90;99997.00;;;;5002655;28;20651;-46
2023/07/02 02:38:08;;;;;;;9.93;7.57;;;21.30;59.90;21.90;99999.00;;;;5000080;28;20182;-46
2023/07/02 02:40:34;;;;;;;11.20;7.90;;;21.30;59.90;21.90;100001.00;;;;5008186;28;20315;-47
2023/07/02 02:43:00;;;;;;;8.57;7.13;;;21.30;59.90;21.90;99993.00;;;;5008032;28;20638;-46
2023/07/02 02:45:26;;;;;;;8.23;7.13;;;21.30;59.90;21.80;99998.00;;;;5008330;28;20203;-46
2023/07/02 02:47:51;;;;;;;8.63;7.30;;;21.30;59.90;21.80;100011.00;;;;5009449;28;20259;-45
2023/07/02 02:50:17;;;;;;;10.40;7.77;;;21.30;59.90;21.80;100001.00;;;;5008795;28;20262;-46
2023/07/02 02:52:43;;;;;;;9.40;8.10;;;21.30;59.90;21.80;100002.00;;;;5009620;28;20337;-46
2023/07/02 02:55:10;;;;;;;8.77;7.83;;;21.30;59.90;21.80;100007.00;;;;5009222;28;20796;-47
2023/07/02 02:57:36;;;;;;;13.10;8.80;;;21.30;59.90;21.80;100006.00;;;;5009128;28;20176;-47
2023/07/02 03:00:02;;;;;;;10.00;8.13;;;21.30;59.90;21.80;100011.00;;;;5008961;28;20218;-47
2023/07/02 03:02:28;;;;;;;8.30;7.13;;;21.30;59.90;21.80;100004.00;;;;5010286;28;20172;-46
2023/07/02 03:04:56;;;;;;;10.87;8.27;;;21.30;59.90;21.80;100011.00;;;;5009969;28;20329;-46
2023/07/02 03:07:22;;;;;;;10.17;8.30;;;21.30;60.00;21.80;100009.00;;;;5010277;28;20176;-47
2023/07/02 03:09:48;;;;;;;10.23;8.70;;;21.20;59.90;21.80;100015.00;;;;5010324;28;20183;-46
2023/07/02 03:12:14;;;;;;;11.07;8.90;;;21.20;59.80;21.80;100014.00;;;;5010151;28;20188;-46
2023/07/02 03:14:39;;;;;;;10.43;8.73;;;21.20;60.60;21.70;100013.00;;;;5010163;28;20181;-46
2023/07/02 03:17:05;;;;;;;10.03;8.73;;;21.20;59.80;21.80;100018.00;;;;5009906;28;20192;-46
2023/07/02 03:19:31;;;;;;;11.80;8.93;;;21.20;59.80;21.70;100005.00;;;;5010025;28;20673;-47
2023/07/02 03:21:57;;;;;;;10.93;9.43;;;21.20;59.80;21.70;100024.00;;;;5010003;28;20550;-46
2023/07/02 03:24:22;;;;;;;11.60;9.30;;;21.20;59.80;21.70;100018.00;;;;5009713;28;20172;-46
2023/07/02 03:26:48;;;;;;;12.60;9.13;;;21.20;60.00;21.70;100006.00;;;;5010031;28;20195;-47
2023/07/02 03:29:15;;;;;;;11.40;9.13;;;21.10;59.90;21.70;100020.00;;;;5009894;28;20187;-46
2023/07/02 03:31:41;;;;;;;12.43;10.20;;;21.20;60.00;21.70;100023.00;;;;5008005;28;20254;-46
2023/07/02 03:34:09;;;;;;;11.93;10.20;;;21.20;60.00;21.70;100016.00;;;;5003163;28;20224;-46
2023/07/02 03:36:35;;;;;;;12.00;9.53;;;21.20;60.00;21.70;100011.00;;;;5004546;28;20674;-46
2023/07/02 03:39:01;;;;;;;12.77;10.40;;;21.10;59.90;21.70;100017.00;;;;4985332;28;20180;-46
2023/07/02 03:41:28;;;;;;;12.67;10.10;;;21.10;59.90;21.60;100022.00;;;;4972614;28;20836;-46
2023/07/02 03:43:54;;;;;;;14.00;10.70;;;21.10;60.00;21.70;100027.00;;;;4989759;28;20203;-46
2023/07/02 03:46:19;;;;;;;13.47;10.63;;;21.10;60.10;21.60;100020.00;;;;4989915;28;20273;-47
2023/07/02 03:48:45;;;;;;;13.40;10.80;;;21.10;60.10;21.60;100022.00;;;;4990054;28;20184;-46
2023/07/02 03:51:14;;;;;;;15.03;10.97;;;21.10;60.10;21.60;100024.00;;;;4989802;28;20176;-46
2023/07/02 03:53:40;;;;;;;13.17;10.50;;;21.10;60.10;21.60;100028.00;;;;4989458;28;20295;-46
2023/07/02 03:56:06;;;;;;;13.07;11.03;;;21.10;60.10;21.60;100025.00;;;;4990027;28;20195;-46
2023/07/02 03:58:31;;;;;;;13.40;11.17;;;21.10;60.30;21.60;100022.00;;;;4989859;28;20243;-46
2023/07/02 04:00:57;;;;;;;12.53;10.93;;;21.10;60.20;21.60;100033.00;;;;4988495;28;20160;-46
2023/07/02 04:03:23;;;;;;;12.87;10.83;;;21.00;60.90;21.60;100035.00;;;;4989450;28;20306;-46
2023/07/02 04:05:49;;;;;;;12.40;11.10;;;21.00;60.00;21.60;100049.00;;;;4988998;28;20191;-46
2023/07/02 04:08:15;;;;;;;14.93;11.80;;;21.00;60.10;21.50;100048.00;;;;4993052;28;20200;-47
2023/07/02 04:10:41;;;;;;;14.77;11.33;;;21.00;60.10;21.50;100054.00;;;;4998364;28;20168;-46
2023/07/02 04:13:07;;;;;;;14.10;12.20;;;21.00;60.10;21.50;100050.00;;;;5004373;28;20262;-47
2023/07/02 04:15:33;;;;;;;14.37;11.90;;;20.90;60.30;21.50;100059.00;;;;5000342;28;20294;-46
2023/07/02 04:17:59;;;;;;;15.43;12.23;;;21.00;60.30;21.50;100053.00;;;;4976546;28;20664;-47
2023/07/02 04:20:25;;;;;;;14.80;12.60;;;20.90;60.30;21.50;100060.00;;;;4994623;28;20176;-46
2023/07/02 04:22:51;;;;;;;14.53;12.60;;;20.90;60.50;21.50;100058.00;;;;4993560;28;20183;-46
2023/07/02 04:25:17;;;;;;;15.67;12.33;;;21.00;60.60;21.50;100063.00;;;;4997626;28;20199;-51
2023/07/02 04:27:43;;;;;;;14.73;12.27;;;20.90;60.90;21.40;100060.00;;;;4997079;28;20200;-47
2023/07/02 04:30:10;;;;;;;20.53;13.13;;;20.90;60.90;21.40;100069.00;;;;4994512;28;20187;-47
2023/07/02 04:32:36;;;;;;;15.57;13.00;;;20.90;60.90;21.40;100069.00;;;;4993070;28;20216;-48
2023/07/02 04:35:02;;;;;;;15.30;12.87;;;20.90;60.90;21.40;100070.00;;;;4992554;28;20176;-47
2023/07/02 04:37:28;;;;;;;15.57;13.33;;;20.90;61.00;21.40;100067.00;;;;4992437;28;20177;-49
2023/07/02 04:39:54;;;;;;;17.03;13.20;;;20.90;61.00;21.40;100076.00;;;;4992630;28;20234;-49
2023/07/02 04:42:20;;;;;;;14.47;12.47;;;20.90;60.90;21.40;100068.00;;;;4992359;28;20222;-48
2023/07/02 04:44:45;;;;;;;14.40;12.87;;;20.90;61.00;21.40;100074.00;;;;4993196;28;20776;-48
2023/07/02 04:47:11;;;;;;;14.27;12.77;;;20.90;61.00;21.40;100070.00;;;;4993419;28;20223;-47
2023/07/02 04:49:38;;;;;;;19.00;14.10;;;20.90;61.80;21.40;100077.00;;;;4995276;28;20672;-47
2023/07/02 04:52:04;;;;;;;19.10;14.23;;;20.90;61.30;21.40;100077.00;;;;4992823;28;20208;-47
2023/07/02 04:54:30;;;;;;;17.30;13.97;;;20.90;61.40;21.40;100087.00;;;;4992633;28;20338;-48
2023/07/02 04:56:56;;;;;;;18.90;14.40;;;20.80;61.30;21.40;100089.00;;;;4992737;28;20200;-46
2023/07/02 04:59:21;;;;;;;17.10;14.30;;;20.90;61.60;21.40;100087.00;;;;4992692;28;20623;-48
2023/07/02 05:01:47;;;;;;;18.17;14.33;;;20.90;61.70;21.30;100092.00;;;;4992330;28;20180;-48
2023/07/02 05:04:13;;;;;;;17.43;13.53;;;20.80;61.70;21.30;100098.00;;;;4991570;28;20185;-49
2023/07/02 05:06:39;;;;;;;18.50;14.13;;;20.80;61.90;21.30;100096.00;;;;4991841;28;20271;-49
2023/07/02 05:09:05;;;;;;;17.93;14.20;;;20.80;61.80;21.30;100102.00;;;;4992314;28;20184;-47
2023/07/02 05:11:30;;;;;;;19.93;14.73;;;20.80;61.90;21.30;100086.00;;;;4992192;28;20207;-48
2023/07/02 05:13:56;;;;;;;18.53;14.33;;;20.80;62.00;21.30;100099.00;;;;4991025;28;20211;-49
2023/07/02 05:16:22;;;;;;;17.57;14.87;;;20.80;62.10;21.30;100097.00;;;;4992180;28;20659;-48
2023/07/02 05:18:47;;;;;;;17.80;15.00;;;20.80;62.10;21.30;100101.00;;;;4991651;28;20699;-48
2023/07/02 05:21:17;;;;;;;18.23;15.57;;;20.80;62.30;21.30;100100.00;;;;4991658;28;20184;-49
2023/07/02 05:23:43;;;;;;;16.67;13.73;;;20.80;62.10;21.30;100115.00;;;;4990979;28;20235;-49
2023/07/02 05:26:08;;;;;;;17.87;14.63;;;20.80;62.10;21.30;100105.00;;;;4991951;28;20200;-47
2023/07/02 05:28:34;;;;;;;20.40;15.53;;;20.80;62.20;21.30;100114.00;;;;4991532;28;20192;-48
2023/07/02 05:31:00;;;;;;;19.00;15.47;;;20.80;62.40;21.20;100112.00;;;;4991454;28;20184;-48
2023/07/02 05:33:26;;;;;;;18.87;15.33;;;20.80;62.50;21.20;100111.00;;;;4991353;28;20204;-48
2023/07/02 05:35:51;;;;;;;17.83;15.20;;;20.70;63.20;21.20;100118.00;;;;4991576;28;20702;-47
2023/07/02 05:38:21;;;;;;;20.93;16.00;;;20.70;62.40;21.20;100115.00;;;;4991414;28;20658;-48
2023/07/02 05:40:46;;;;;;;18.33;15.50;;;20.80;62.50;21.20;100112.00;;;;4991623;28;20622;-48
2023/07/02 05:43:12;;;;;;;20.00;15.90;;;20.70;62.60;21.20;100126.00;;;;4990779;28;20177;-48
2023/07/02 05:45:38;;;;;;;18.80;15.53;;;20.70;62.60;21.20;100124.00;;;;4990773;28;20617;-48
2023/07/02 05:48:04;;;;;;;18.27;14.90;;;20.70;62.80;21.20;100125.00;;;;4991429;28;20278;-48
2023/07/02 05:50:29;;;;;;;19.50;16.07;;;20.70;62.90;21.20;100125.00;;;;4990801;28;20186;-48
2023/07/02 05:52:55;;;;;;;21.37;16.57;;;20.60;62.70;21.20;100127.00;;;;4990241;28;20207;-50
2023/07/02 05:55:21;;;;;;;19.63;16.10;;;20.70;62.90;21.20;100134.00;;;;4990926;28;20282;-49
2023/07/02 05:57:47;;;;;;;20.20;15.87;;;20.70;62.90;21.10;100136.00;;;;4991032;28;20169;-49
2023/07/02 06:00:13;;;;;;;21.67;16.53;;;20.70;62.90;21.10;100142.00;;;;4991567;28;20168;-47
2023/07/02 06:02:39;;;;;;;22.80;16.87;;;20.60;62.80;21.10;100131.00;;;;4990799;28;20233;-48
2023/07/02 06:05:05;;;;;;;19.90;15.80;;;20.60;62.80;21.10;100142.00;;;;4989180;28;20665;-49
2023/07/02 06:07:31;;;;;;;22.63;16.37;;;20.60;62.80;21.10;100141.00;;;;4990749;28;20220;-49
2023/07/02 06:09:56;;;;;;;20.70;16.23;;;20.60;63.60;21.10;100139.00;;;;4991084;28;20201;-48
2023/07/02 06:12:22;;;;;;;18.67;15.47;;;20.60;62.80;21.10;100150.00;;;;5011867;28;20175;-48
2023/07/02 06:14:48;;;;;;;18.70;15.83;;;20.60;62.80;21.10;100147.00;;;;5020839;28;20175;-48
2023/07/02 06:17:15;;;;;;;20.97;15.23;;;20.60;62.80;21.10;100154.00;;;;5000881;28;20203;-48
2023/07/02 06:19:40;;;;;;;21.83;16.07;;;20.60;62.80;21.10;100155.00;;;;5006634;28;20183;-49
2023/07/02 06:22:06;;;;;;;20.50;15.87;;;20.60;62.80;21.10;100159.00;;;;5010547;28;20179;-48
2023/07/02 06:24:32;;;;;;;20.07;15.90;;;20.60;62.80;21.10;100152.00;;;;5010960;28;20175;-48
2023/07/02 06:26:58;;;;;;;21.47;16.33;;;20.60;62.80;21.10;100162.00;;;;5015625;28;20199;-53
2023/07/02 06:29:24;;;;;;;18.07;15.60;;;20.60;62.80;21.10;100167.00;;;;5020263;28;20205;-50
2023/07/02 06:31:50;;;;;;;20.67;15.50;;;20.60;62.50;21.10;100159.00;;;;5020454;28;20193;-48
2023/07/02 06:34:16;;;;;;;17.57;15.07;;;20.60;62.50;21.10;100170.00;;;;5002727;28;20310;-55
2023/07/02 06:36:42;;;;;;;16.93;14.27;;;20.60;62.40;21.10;100172.00;;;;4999501;28;20860;-48
2023/07/02 06:39:09;;;;;;;16.80;14.23;;;20.50;62.40;21.10;100170.00;;;;4997472;28;20222;-48
2023/07/02 06:41:35;;;;;;;16.07;14.10;;;20.40;62.30;21.10;100170.00;;;;4993657;28;20191;-47
2023/07/02 06:44:01;;;;;;;18.23;14.87;;;20.50;62.70;21.10;100166.00;;;;5003248;28;20286;-48
2023/07/02 06:46:27;;;;;;;20.33;15.17;;;20.50;62.80;21.10;100178.00;;;;4990647;28;20238;-49
2023/07/02 06:48:53;;;;;;;19.10;14.40;;;20.50;62.70;21.20;100178.00;;;;4990831;28;20589;-48
2023/07/02 06:51:20;;;;;;;17.07;14.47;;;20.50;62.50;21.20;100182.00;;;;4990716;28;20211;-47
2023/07/02 06:53:46;;;;;;;14.63;13.07;;;20.50;62.60;21.20;100175.00;;;;4995450;28;20797;-47
2023/07/02 06:56:12;;;;;;;17.67;13.20;;;20.60;62.70;21.20;100182.00;;;;5005043;28;20207;-48
2023/07/02 06:58:39;;;;;;;17.60;13.70;;;20.60;62.80;21.20;100190.00;;;;4989486;28;20172;-47
2023/07/02 07:01:05;;;;;;;19.70;14.20;;;20.60;62.80;21.30;100194.00;;;;4973351;28;20191;-48
2023/07/02 07:03:31;;;;;;;17.00;13.60;;;20.50;62.70;21.30;100190.00;;;;4990835;28;20202;-48
2023/07/02 07:05:57;;;;;;;18.47;13.70;;;20.60;62.80;21.30;100186.00;;;;4990571;28;20200;-48
2023/07/02 07:08:22;;;;;;;15.43;13.00;;;20.60;62.80;21.30;100187.00;;;;4989845;28;20262;-48
2023/07/02 07:10:49;;;;;;;16.03;13.40;;;20.60;63.10;21.30;100180.00;;;;4973212;28;20580;-48
2023/07/02 07:13:15;;;;;;;18.53;13.80;;;20.70;63.40;21.40;100181.00;;;;4990333;28;20200;-48
2023/07/02 07:15:42;;;;;;;19.50;14.07;;;20.70;64.30;21.40;100185.00;;;;4990396;28;20193;-48
2023/07/02 07:18:08;;;;;;;19.87;13.90;;;20.70;64.70;21.40;100193.00;;;;4990516;28;20179;-47
2023/07/02 07:20:34;;;;;;;20.23;13.80;;;20.70;64.80;21.50;100196.00;;;;4990667;28;20224;-47
2023/07/02 07:23:02;;;;;;;18.70;13.17;;;20.80;65.40;21.50;100192.00;;;;4990604;28;20204;-47
2023/07/02 07:25:27;;;;;;;20.23;14.63;;;20.80;66.40;21.50;100192.00;;;;4994698;28;20200;-53
2023/07/02 07:27:53;;;;;;;18.90;13.63;;;20.80;66.00;21.50;100192.00;;;;5010223;28;20202;-48
2023/07/02 07:30:23;;;;;;;20.20;13.50;;;20.80;66.40;21.50;100192.00;;;;5010132;28;20176;-48
2023/07/02 07:32:50;;;;;;;20.10;14.27;;;20.80;66.60;21.50;100195.00;;;;5009925;28;20211;-48
2023/07/02 07:35:17;;;;;;;19.43;13.53;;;20.80;66.30;21.50;100195.00;;;;5009877;28;20202;-49
2023/07/02 07:37:43;;;;;;;17.80;13.87;;;20.80;66.30;21.50;100195.00;;;;5010077;28;20550;-48
2023/07/02 07:40:09;;;;;;;18.97;14.27;;;20.80;66.00;21.60;100199.00;;;;5009971;28;20176;-48
2023/07/02 07:42:34;;;;;;;17.43;13.17;;;20.80;66.10;21.60;100205.00;;;;4992316;28;20187;-47
2023/07/02 07:45:00;;;;;;;17.97;12.90;;;20.80;66.00;21.60;100204.00;;;;5006888;28;20200;-48
2023/07/02 07:47:26;;;;;;;16.50;13.33;;;20.80;66.00;21.60;100204.00;;;;5013692;28;20206;-50
2023/07/02 07:49:51;;;;;;;17.40;13.50;;;20.80;65.90;21.60;100200.00;;;;5013890;28;20175;-47
2023/07/02 07:52:17;;;;;;;21.30;13.57;;;20.80;66.60;21.60;100209.00;;;;5014114;28;20258;-47
2023/07/02 07:54:43;;;;;;;19.17;13.13;;;20.80;65.90;21.60;100208.00;;;;5013779;28;20175;-48
2023/07/02 07:57:09;;;;;;;18.20;13.33;;;20.80;65.80;21.60;100205.00;;;;5013839;28;20661;-48
2023/07/02 07:59:34;;;;;;;16.13;12.97;;;20.90;65.80;21.60;100207.00;;;;5013565;28;20259;-48
2023/07/02 08:02:00;;;;;;;14.67;12.33;;;20.90;65.60;21.70;100219.00;;;;5013659;28;20259;-47
2023/07/02 08:04:26;;;;;;;13.90;11.73;;;20.80;65.50;21.70;100211.00;;;;5018302;28;20715;-49
2023/07/02 08:06:51;;;;;;;15.97;13.13;;;20.90;65.60;21.70;100206.00;;;;5017682;28;20200;-48
2023/07/02 08:09:17;;;;;;;16.40;12.90;;;20.90;65.50;21.70;100207.00;;;;5013726;28;20697;-47
2023/07/02 08:11:43;;;;;;;14.87;12.47;;;20.90;65.40;21.70;100216.00;;;;5013751;28;20190;-48
2023/07/02 08:14:09;;;;;;;16.80;12.80;;;20.90;66.20;21.70;100212.00;;;;5027957;28;20263;-49
2023/07/02 08:16:34;;;;;;;15.53;12.43;;;20.90;65.40;21.70;100215.00;;;;5024908;28;20596;-47
2023/07/02 08:19:01;;;;;;;14.57;12.97;;;20.90;65.20;21.70;100215.00;;;;5012373;28;20175;-47
2023/07/02 08:21:27;;;;;;;16.03;12.73;;;20.90;65.10;21.70;100221.00;;;;5014684;28;20642;-48
2023/07/02 08:23:53;;;;;;;16.13;12.50;;;20.90;65.00;21.70;100232.00;;;;5013923;28;20176;-43
2023/07/02 08:26:18;;;;;;;13.70;12.03;;;20.90;65.00;21.70;100234.00;;;;5014033;28;20202;-49
2023/07/02 08:28:44;;;;;;;12.80;11.40;;;20.90;65.00;21.70;100236.00;;;;5031072;28;20191;-47
2023/07/02 08:31:10;;;;;;;15.10;12.53;;;20.90;65.00;21.80;100234.00;;;;5021598;28;20237;-47
2023/07/02 08:33:35;;;;;;;15.90;12.20;;;20.90;64.90;21.70;100236.00;;;;5013335;28;20207;-49
2023/07/02 08:36:01;;;;;;;13.70;11.90;;;21.00;65.00;21.70;100241.00;;;;5013184;28;20666;-47
2023/07/02 08:38:27;;;;;;;13.37;11.67;;;20.90;65.00;21.80;100237.00;;;;5013235;28;20180;-47
2023/07/02 08:40:53;;;;;;;12.50;11.03;;;21.00;64.80;21.80;100240.00;;;;5013035;28;20206;-47
2023/07/02 08:43:18;;;;;;;13.80;11.43;;;20.90;64.60;21.80;100242.00;;;;5013310;28;20575;-48
2023/07/02 08:45:44;;;;;;;13.67;12.23;;;20.90;64.50;21.80;100236.00;;;;5012798;28;20216;-48
2023/07/02 08:48:13;;;;;;;12.70;11.37;;;20.90;64.60;21.80;100247.00;;;;5016260;28;20180;-48
2023/07/02 08:50:38;;;;;;;13.27;11.67;;;20.90;64.50;21.80;100235.00;;;;4994251;28;20186;-48
2023/07/02 08:53:04;;;;;;;13.37;11.43;;;21.00;64.50;21.80;100238.00;;;;5012712;28;20206;-47
2023/07/02 08:55:30;;;;;;;13.97;11.67;;;20.90;64.50;21.80;100229.00;;;;5012382;28;20197;-47
2023/07/02 08:58:00;;;;;;;13.57;12.00;;;20.90;64.30;21.80;100244.00;;;;5011634;28;20246;-47
2023/07/02 09:00:26;;;;;;;13.57;11.43;;;21.00;64.40;21.80;100245.00;;;;4995551;28;20263;-48
2023/07/02 09:02:52;;;;;;;13.27;11.80;;;21.00;64.30;21.80;100193.00;;;;5012629;28;20184;-48
2023/07/02 09:05:18;;;;;;;13.13;11.73;;;21.00;64.30;21.80;100242.00;;;;5012448;28;20708;-48
2023/07/02 09:07:48;;;;;;;13.27;11.53;;;21.00;64.20;21.90;100232.00;;;;4978932;28;20175;-47
2023/07/02 09:10:34;;;;;;;12.20;10.90;;;21.00;64.20;21.90;100239.00;;;;5012609;28;20689;-48
2023/07/02 09:13:06;;;;;;;13.40;11.73;;;21.00;64.10;21.80;100241.00;;;;5012347;28;20697;-47
2023/07/02 09:15:39;;;;;;;12.30;11.00;;;21.00;64.10;21.90;100249.00;;;;5012423;28;20226;-48
2023/07/02 09:18:18;;;;;;;13.47;12.07;;;21.00;64.00;21.90;100216.00;;;;5012476;28;20611;-48
2023/07/02 09:20:44;;;;;;;12.73;11.10;;;21.00;64.10;21.90;100234.00;;;;5005162;28;20172;-48
2023/07/02 09:23:10;;;;;;;12.50;11.20;;;21.10;64.00;21.90;100244.00;;;;5012419;28;20207;-48
2023/07/02 09:25:38;;;;;;;14.17;11.43;;;21.00;64.00;21.90;100253.00;;;;5012332;28;20191;-47
2023/07/02 09:28:15;;;;;;;10.97;9.80;;;21.10;64.10;21.90;100248.00;;;;5012068;28;20186;-48
2023/07/02 09:30:56;;;;;;;11.90;10.37;;;21.00;64.00;21.90;100259.00;;;;5012657;28;20733;-48
2023/07/02 09:33:27;;;;;;;12.60;11.00;;;21.10;64.10;21.90;100255.00;;;;5012223;28;20254;-48
2023/07/02 09:35:53;;;;;;;12.80;10.93;;;21.10;64.00;21.90;100246.00;;;;5012014;28;20195;-47
2023/07/02 09:38:21;;;;;;;12.50;11.20;;;21.10;64.00;21.90;100252.00;;;;5012289;28;20180;-47
2023/07/02 09:40:51;;;;;;;11.43;10.23;;;21.10;63.90;21.90;100246.00;;;;5012214;28;20234;-48
2023/07/02 09:43:17;;;;;;;11.23;10.13;;;21.10;63.90;21.90;100246.00;;;;5012060;28;20207;-53
2023/07/02 09:45:47;;;;;;;11.83;10.47;;;21.10;63.80;21.90;100258.00;;;;5011768;28;20731;-48
2023/07/02 09:48:15;;;;;;;11.53;10.03;;;21.10;63.90;21.90;100259.00;;;;5011686;28;20183;-48
2023/07/02 09:50:43;;;;;;;11.67;10.03;;;21.10;63.70;21.90;100244.00;;;;5011807;28;20230;-49
2023/07/02 09:53:09;;;;;;;11.60;10.40;;;21.10;63.70;22.00;100251.00;;;;4994275;28;20203;-49
2023/07/02 09:55:35;;;;;;;11.60;10.40;;;21.10;63.70;22.00;100249.00;;;;5011513;28;20218;-48
2023/07/02 09:58:00;;;;;;;10.40;9.40;;;21.10;63.80;22.00;100244.00;;;;4994066;28;20222;-48
2023/07/02 10:00:26;;;;;;;11.27;10.17;;;21.10;63.70;22.00;100252.00;;;;5011515;28;20226;-48
2023/07/02 10:02:52;;;;;;;11.03;9.97;;;21.10;63.60;22.00;100239.00;;;;5011614;28;20175;-48
2023/07/02 10:05:33;;;;;;;11.67;10.47;;;21.10;63.60;22.00;100253.00;;;;4994150;28;20191;-47
2023/07/02 10:08:22;;;;;;;11.20;10.10;;;21.20;63.70;22.00;100253.00;;;;4993921;28;20229;-47
2023/07/02 10:10:48;;;;;;;12.07;10.77;;;21.20;63.50;22.00;100248.00;;;;5011450;28;20184;-47
2023/07/02 10:13:14;;;;;;;11.50;10.33;;;21.20;63.50;22.00;100249.00;;;;4993871;28;20223;-48
2023/07/02 10:15:40;;;;;;;10.80;9.67;;;21.20;63.50;22.00;100268.00;;;;5030844;28;20274;-50
2023/07/02 10:18:05;;;;;;;11.10;10.00;;;21.20;63.50;22.00;100260.00;;;;5020279;28;20565;-48
2023/07/02 10:20:39;;;;;;;11.53;10.37;;;21.20;63.50;22.00;100259.00;;;;5011664;28;20179;-48
2023/07/02 10:23:06;;;;;;;11.53;10.33;;;21.20;63.50;22.00;100254.00;;;;5011572;28;20222;-46
2023/07/02 10:25:37;;;;;;;11.00;9.90;;;21.20;63.50;22.10;100252.00;;;;5011899;28;20251;-48
2023/07/02 10:28:17;;;;;;;12.07;10.30;;;21.20;63.50;22.10;100266.00;;;;5011696;28;20191;-47
2023/07/02 10:30:43;;;;;;;11.10;10.00;;;21.20;63.50;22.10;100264.00;;;;5032357;28;20171;-48
2023/07/02 10:33:13;;;;;;;11.27;10.17;;;21.20;63.40;22.10;100264.00;;;;5013077;28;20700;-47
2023/07/02 10:35:41;;;;;;;11.47;10.27;;;21.20;63.40;22.10;100263.00;;;;5011069;28;20279;-47
2023/07/02 10:38:07;;;;;;;11.63;10.17;;;21.20;63.20;22.10;100253.00;;;;5011090;28;20556;-47